sensor_id;sensor_type;location;lat;lon;timestamp;P1;durP1;ratioP1;P2;durP2;ratioP2
495;SDS011;39559;48.630;9.162;2022-07-12T00:02:31;11.23;;;7.75;;
495;SDS011;39559;48.630;9.162;2022-07-12T00:04:57;9.57;;;8.63;;
495;SDS011;39559;48.630;9.162;2022-07-12T00:07:23;9.13;;;8.23;;
495;SDS011;39559;48.630;9.162;2022-07-12T00:09:49;9.60;;;8.23;;
495;SDS011;39559;48.630;9.162;2022-07-12T00:12:15;10.10;;;8.30;;
495;SDS011;39559;48.630;9.162;2022-07-12T00:14:40;8.63;;;7.73;;
495;SDS011;39559;48.630;9.162;2022-07-12T00:17:06;9.33;;;8.23;;
495;SDS011;39559;48.630;9.162;2022-07-12T00:19:31;9.67;;;8.67;;
495;SDS011;39559;48.630;9.162;2022-07-12T00:21:57;9.20;;;8.20;;
495;SDS011;39559;48.630;9.162;2022-07-12T00:26:27;9.82;;;8.85;;
495;SDS011;39559;48.630;9.162;2022-07-12T00:28:53;9.27;;;8.37;;
495;SDS011;39559;48.630;9.162;2022-07-12T00:31:19;9.83;;;8.47;;
495;SDS011;39559;48.630;9.162;2022-07-12T00:33:45;9.10;;;7.95;;
495;SDS011;39559;48.630;9.162;2022-07-12T00:36:11;10.13;;;7.90;;
495;SDS011;39559;48.630;9.162;2022-07-12T00:38:37;8.83;;;7.93;;
495;SDS011;39559;48.630;9.162;2022-07-12T00:41:03;9.60;;;8.63;;
495;SDS011;39559;48.630;9.162;2022-07-12T00:43:28;9.10;;;8.17;;
495;SDS011;39559;48.630;9.162;2022-07-12T00:45:54;9.40;;;8.50;;
495;SDS011;39559;48.630;9.162;2022-07-12T00:50:24;9.43;;;8.48;;
495;SDS011;39559;48.630;9.162;2022-07-12T00:52:51;9.23;;;8.23;;
495;SDS011;39559;48.630;9.162;2022-07-12T00:55:18;8.73;;;7.82;;
495;SDS011;39559;48.630;9.162;2022-07-12T00:57:44;9.30;;;8.40;;
495;SDS011;39559;48.630;9.162;2022-07-12T01:00:12;10.63;;;9.47;;
495;SDS011;39559;48.630;9.162;2022-07-12T01:02:40;10.05;;;9.05;;
495;SDS011;39559;48.630;9.162;2022-07-12T01:05:06;9.90;;;8.90;;
495;SDS011;39559;48.630;9.162;2022-07-12T01:07:33;9.48;;;8.48;;
495;SDS011;39559;48.630;9.162;2022-07-12T01:10:00;10.60;;;9.50;;
495;SDS011;39559;48.630;9.162;2022-07-12T01:14:20;10.38;;;9.38;;
495;SDS011;39559;48.630;9.162;2022-07-12T01:16:46;10.00;;;9.00;;
495;SDS011;39559;48.630;9.162;2022-07-12T01:19:12;10.07;;;9.07;;
495;SDS011;39559;48.630;9.162;2022-07-12T01:21:45;9.23;;;8.20;;
495;SDS011;39559;48.630;9.162;2022-07-12T01:24:12;9.75;;;8.68;;
495;SDS011;39559;48.630;9.162;2022-07-12T01:26:39;9.73;;;8.73;;
495;SDS011;39559;48.630;9.162;2022-07-12T01:29:06;9.45;;;8.43;;
495;SDS011;39559;48.630;9.162;2022-07-12T01:31:34;9.80;;;8.80;;
495;SDS011;39559;48.630;9.162;2022-07-12T01:34:01;10.57;;;8.80;;
495;SDS011;39559;48.630;9.162;2022-07-12T01:38:17;9.95;;;8.52;;
495;SDS011;39559;48.630;9.162;2022-07-12T01:40:43;9.70;;;8.63;;
495;SDS011;39559;48.630;9.162;2022-07-12T01:43:10;9.77;;;8.60;;
495;SDS011;39559;48.630;9.162;2022-07-12T01:45:36;9.38;;;7.97;;
495;SDS011;39559;48.630;9.162;2022-07-12T01:48:02;8.97;;;8.07;;
495;SDS011;39559;48.630;9.162;2022-07-12T01:50:29;9.55;;;8.63;;
495;SDS011;39559;48.630;9.162;2022-07-12T01:52:54;9.30;;;8.30;;
495;SDS011;39559;48.630;9.162;2022-07-12T01:55:20;10.57;;;9.57;;
495;SDS011;39559;48.630;9.162;2022-07-12T01:57:46;10.80;;;9.00;;
495;SDS011;39559;48.630;9.162;2022-07-12T02:02:14;10.10;;;9.10;;
495;SDS011;39559;48.630;9.162;2022-07-12T02:04:40;10.63;;;8.90;;
495;SDS011;39559;48.630;9.162;2022-07-12T02:07:05;9.33;;;8.43;;
495;SDS011;39559;48.630;9.162;2022-07-12T02:09:31;14.60;;;10.93;;
495;SDS011;39559;48.630;9.162;2022-07-12T02:11:57;9.93;;;8.88;;
495;SDS011;39559;48.630;9.162;2022-07-12T02:14:23;9.68;;;8.68;;
495;SDS011;39559;48.630;9.162;2022-07-12T02:16:49;10.00;;;8.73;;
495;SDS011;39559;48.630;9.162;2022-07-12T02:19:15;9.23;;;8.27;;
495;SDS011;39559;48.630;9.162;2022-07-12T02:21:41;10.57;;;9.47;;
495;SDS011;39559;48.630;9.162;2022-07-12T02:26:11;9.80;;;8.80;;
495;SDS011;39559;48.630;9.162;2022-07-12T02:28:37;10.10;;;8.50;;
495;SDS011;39559;48.630;9.162;2022-07-12T02:31:02;9.17;;;8.23;;
495;SDS011;39559;48.630;9.162;2022-07-12T02:33:28;10.67;;;9.17;;
495;SDS011;39559;48.630;9.162;2022-07-12T02:35:54;9.70;;;8.70;;
495;SDS011;39559;48.630;9.162;2022-07-12T02:38:19;9.03;;;8.13;;
495;SDS011;39559;48.630;9.162;2022-07-12T02:40:46;10.43;;;8.30;;
495;SDS011;39559;48.630;9.162;2022-07-12T02:43:19;10.23;;;7.93;;
495;SDS011;39559;48.630;9.162;2022-07-12T02:45:45;9.52;;;7.72;;
495;SDS011;39559;48.630;9.162;2022-07-12T02:50:09;9.60;;;8.10;;
495;SDS011;39559;48.630;9.162;2022-07-12T02:52:34;10.00;;;8.67;;
495;SDS011;39559;48.630;9.162;2022-07-12T02:55:00;10.53;;;8.60;;
495;SDS011;39559;48.630;9.162;2022-07-12T02:57:25;10.10;;;7.80;;
495;SDS011;39559;48.630;9.162;2022-07-12T02:59:51;10.67;;;8.43;;
495;SDS011;39559;48.630;9.162;2022-07-12T03:02:17;10.13;;;8.77;;
495;SDS011;39559;48.630;9.162;2022-07-12T03:04:45;8.87;;;7.67;;
495;SDS011;39559;48.630;9.162;2022-07-12T03:07:10;9.20;;;8.02;;
495;SDS011;39559;48.630;9.162;2022-07-12T03:09:36;9.20;;;8.30;;
495;SDS011;39559;48.630;9.162;2022-07-12T03:14:06;12.68;;;7.72;;
495;SDS011;39559;48.630;9.162;2022-07-12T03:16:32;9.63;;;8.57;;
495;SDS011;39559;48.630;9.162;2022-07-12T03:18:57;9.90;;;8.80;;
495;SDS011;39559;48.630;9.162;2022-07-12T03:21:23;11.27;;;8.47;;
495;SDS011;39559;48.630;9.162;2022-07-12T03:23:48;10.10;;;8.60;;
495;SDS011;39559;48.630;9.162;2022-07-12T03:26:14;9.73;;;8.37;;
495;SDS011;39559;48.630;9.162;2022-07-12T03:28:40;11.10;;;8.73;;
495;SDS011;39559;48.630;9.162;2022-07-12T03:31:05;9.67;;;8.67;;
495;SDS011;39559;48.630;9.162;2022-07-12T03:33:31;11.23;;;8.70;;
495;SDS011;39559;48.630;9.162;2022-07-12T03:38:03;9.88;;;8.85;;
495;SDS011;39559;48.630;9.162;2022-07-12T03:40:30;10.33;;;9.00;;
495;SDS011;39559;48.630;9.162;2022-07-12T03:42:57;10.73;;;8.73;;
495;SDS011;39559;48.630;9.162;2022-07-12T03:45:23;11.38;;;8.85;;
495;SDS011;39559;48.630;9.162;2022-07-12T03:47:49;9.50;;;8.60;;
495;SDS011;39559;48.630;9.162;2022-07-12T03:50:14;9.90;;;8.43;;
495;SDS011;39559;48.630;9.162;2022-07-12T03:52:40;9.60;;;8.37;;
495;SDS011;39559;48.630;9.162;2022-07-12T03:55:07;9.60;;;8.60;;
495;SDS011;39559;48.630;9.162;2022-07-12T03:57:34;11.70;;;9.10;;
495;SDS011;39559;48.630;9.162;2022-07-12T04:02:01;10.05;;;8.93;;
495;SDS011;39559;48.630;9.162;2022-07-12T04:04:27;9.40;;;8.40;;
495;SDS011;39559;48.630;9.162;2022-07-12T04:06:53;9.80;;;8.80;;
495;SDS011;39559;48.630;9.162;2022-07-12T04:09:19;11.10;;;9.90;;
495;SDS011;39559;48.630;9.162;2022-07-12T04:11:44;9.27;;;8.27;;
495;SDS011;39559;48.630;9.162;2022-07-12T04:14:10;10.00;;;8.63;;
495;SDS011;39559;48.630;9.162;2022-07-12T04:16:35;10.13;;;9.07;;
495;SDS011;39559;48.630;9.162;2022-07-12T04:19:01;9.60;;;8.63;;
495;SDS011;39559;48.630;9.162;2022-07-12T04:21:27;9.80;;;8.80;;
495;SDS011;39559;48.630;9.162;2022-07-12T04:25:58;9.27;;;8.32;;
495;SDS011;39559;48.630;9.162;2022-07-12T04:28:24;10.40;;;8.80;;
495;SDS011;39559;48.630;9.162;2022-07-12T04:30:49;10.03;;;9.00;;
495;SDS011;39559;48.630;9.162;2022-07-12T04:33:15;10.30;;;9.20;;
495;SDS011;39559;48.630;9.162;2022-07-12T04:35:40;11.00;;;9.07;;
495;SDS011;39559;48.630;9.162;2022-07-12T04:38:07;10.60;;;9.60;;
495;SDS011;39559;48.630;9.162;2022-07-12T04:40:33;11.05;;;8.95;;
495;SDS011;39559;48.630;9.162;2022-07-12T04:42:58;11.10;;;9.37;;
495;SDS011;39559;48.630;9.162;2022-07-12T04:45:24;14.97;;;9.50;;
495;SDS011;39559;48.630;9.162;2022-07-12T04:49:56;11.18;;;9.70;;
495;SDS011;39559;48.630;9.162;2022-07-12T04:52:22;11.27;;;9.63;;
495;SDS011;39559;48.630;9.162;2022-07-12T04:54:47;11.47;;;9.97;;
495;SDS011;39559;48.630;9.162;2022-07-12T04:57:13;12.63;;;10.30;;
495;SDS011;39559;48.630;9.162;2022-07-12T04:59:39;12.50;;;11.20;;
495;SDS011;39559;48.630;9.162;2022-07-12T05:02:04;12.37;;;11.10;;
495;SDS011;39559;48.630;9.162;2022-07-12T05:04:33;12.40;;;11.10;;
495;SDS011;39559;48.630;9.162;2022-07-12T05:06:59;11.57;;;10.35;;
495;SDS011;39559;48.630;9.162;2022-07-12T05:09:24;12.80;;;10.73;;
495;SDS011;39559;48.630;9.162;2022-07-12T05:13:54;12.75;;;11.45;;
495;SDS011;39559;48.630;9.162;2022-07-12T05:16:19;11.53;;;10.33;;
495;SDS011;39559;48.630;9.162;2022-07-12T05:18:45;14.20;;;11.60;;
495;SDS011;39559;48.630;9.162;2022-07-12T05:21:10;16.57;;;11.20;;
495;SDS011;39559;48.630;9.162;2022-07-12T05:23:36;14.30;;;11.60;;
495;SDS011;39559;48.630;9.162;2022-07-12T05:26:01;13.90;;;11.97;;
495;SDS011;39559;48.630;9.162;2022-07-12T05:28:27;13.03;;;11.33;;
495;SDS011;39559;48.630;9.162;2022-07-12T05:30:52;15.30;;;12.97;;
495;SDS011;39559;48.630;9.162;2022-07-12T05:33:18;14.70;;;12.63;;
495;SDS011;39559;48.630;9.162;2022-07-12T05:37:52;15.52;;;13.70;;
495;SDS011;39559;48.630;9.162;2022-07-12T05:40:17;17.70;;;15.80;;
495;SDS011;39559;48.630;9.162;2022-07-12T05:42:44;16.75;;;14.27;;
495;SDS011;39559;48.630;9.162;2022-07-12T05:45:10;16.55;;;14.27;;
495;SDS011;39559;48.630;9.162;2022-07-12T05:47:35;16.83;;;15.03;;
495;SDS011;39559;48.630;9.162;2022-07-12T05:50:01;15.90;;;13.33;;
495;SDS011;39559;48.630;9.162;2022-07-12T05:52:28;17.08;;;14.75;;
495;SDS011;39559;48.630;9.162;2022-07-12T05:55:12;16.75;;;14.70;;
495;SDS011;39559;48.630;9.162;2022-07-12T05:57:39;17.38;;;14.85;;
495;SDS011;39559;48.630;9.162;2022-07-12T06:01:49;14.88;;;13.30;;
495;SDS011;39559;48.630;9.162;2022-07-12T06:04:15;15.57;;;13.00;;
495;SDS011;39559;48.630;9.162;2022-07-12T06:06:41;14.40;;;12.80;;
495;SDS011;39559;48.630;9.162;2022-07-12T06:09:06;15.73;;;12.80;;
495;SDS011;39559;48.630;9.162;2022-07-12T06:11:32;13.70;;;12.30;;
495;SDS011;39559;48.630;9.162;2022-07-12T06:13:58;13.65;;;12.25;;
495;SDS011;39559;48.630;9.162;2022-07-12T06:16:24;14.60;;;12.33;;
495;SDS011;39559;48.630;9.162;2022-07-12T06:18:50;13.67;;;12.20;;
495;SDS011;39559;48.630;9.162;2022-07-12T06:21:15;13.17;;;11.60;;
495;SDS011;39559;48.630;9.162;2022-07-12T06:25:47;12.02;;;10.55;;
495;SDS011;39559;48.630;9.162;2022-07-12T06:28:13;11.07;;;9.93;;
495;SDS011;39559;48.630;9.162;2022-07-12T06:30:39;12.13;;;10.00;;
495;SDS011;39559;48.630;9.162;2022-07-12T06:33:04;10.37;;;9.27;;
495;SDS011;39559;48.630;9.162;2022-07-12T06:35:30;10.80;;;9.80;;
495;SDS011;39559;48.630;9.162;2022-07-12T06:37:55;10.63;;;9.60;;
495;SDS011;39559;48.630;9.162;2022-07-12T06:40:21;9.20;;;8.13;;
495;SDS011;39559;48.630;9.162;2022-07-12T06:42:48;9.60;;;8.60;;
495;SDS011;39559;48.630;9.162;2022-07-12T06:45:14;10.68;;;9.32;;
495;SDS011;39559;48.630;9.162;2022-07-12T06:49:45;8.70;;;7.80;;
495;SDS011;39559;48.630;9.162;2022-07-12T06:52:11;8.90;;;7.50;;
495;SDS011;39559;48.630;9.162;2022-07-12T06:54:36;8.83;;;7.40;;
495;SDS011;39559;48.630;9.162;2022-07-12T06:57:02;7.50;;;6.50;;
495;SDS011;39559;48.630;9.162;2022-07-12T06:59:27;7.70;;;6.00;;
495;SDS011;39559;48.630;9.162;2022-07-12T07:01:53;7.53;;;5.43;;
495;SDS011;39559;48.630;9.162;2022-07-12T07:04:21;6.35;;;5.75;;
495;SDS011;39559;48.630;9.162;2022-07-12T07:06:47;7.72;;;6.05;;
495;SDS011;39559;48.630;9.162;2022-07-12T07:09:12;8.40;;;5.17;;
495;SDS011;39559;48.630;9.162;2022-07-12T07:13:43;4.75;;;3.95;;
495;SDS011;39559;48.630;9.162;2022-07-12T07:16:09;4.57;;;3.97;;
495;SDS011;39559;48.630;9.162;2022-07-12T07:18:34;5.17;;;4.60;;
495;SDS011;39559;48.630;9.162;2022-07-12T07:21:00;4.63;;;3.80;;
495;SDS011;39559;48.630;9.162;2022-07-12T07:23:25;4.73;;;4.23;;
495;SDS011;39559;48.630;9.162;2022-07-12T07:25:51;5.33;;;4.07;;
495;SDS011;39559;48.630;9.162;2022-07-12T07:28:16;5.00;;;3.90;;
495;SDS011;39559;48.630;9.162;2022-07-12T07:30:42;4.27;;;3.70;;
495;SDS011;39559;48.630;9.162;2022-07-12T07:33:23;5.87;;;4.17;;
495;SDS011;39559;48.630;9.162;2022-07-12T07:37:40;4.83;;;4.33;;
495;SDS011;39559;48.630;9.162;2022-07-12T07:40:06;4.27;;;3.87;;
495;SDS011;39559;48.630;9.162;2022-07-12T07:42:32;4.37;;;3.83;;
495;SDS011;39559;48.630;9.162;2022-07-12T07:44:57;4.60;;;3.70;;
495;SDS011;39559;48.630;9.162;2022-07-12T07:47:23;4.40;;;3.70;;
495;SDS011;39559;48.630;9.162;2022-07-12T07:49:48;4.70;;;3.30;;
495;SDS011;39559;48.630;9.162;2022-07-12T07:52:14;4.60;;;3.90;;
495;SDS011;39559;48.630;9.162;2022-07-12T07:54:39;4.10;;;3.43;;
495;SDS011;39559;48.630;9.162;2022-07-12T07:57:05;3.43;;;3.13;;
495;SDS011;39559;48.630;9.162;2022-07-12T08:01:39;3.90;;;2.97;;
495;SDS011;39559;48.630;9.162;2022-07-12T08:04:11;3.47;;;3.10;;
495;SDS011;39559;48.630;9.162;2022-07-12T08:06:37;6.13;;;3.03;;
495;SDS011;39559;48.630;9.162;2022-07-12T08:09:03;3.20;;;2.77;;
495;SDS011;39559;48.630;9.162;2022-07-12T08:11:29;5.03;;;2.57;;
495;SDS011;39559;48.630;9.162;2022-07-12T08:13:54;3.10;;;2.40;;
495;SDS011;39559;48.630;9.162;2022-07-12T08:16:20;3.40;;;2.50;;
495;SDS011;39559;48.630;9.162;2022-07-12T08:18:45;4.40;;;2.27;;
495;SDS011;39559;48.630;9.162;2022-07-12T08:21:11;2.90;;;2.30;;
495;SDS011;39559;48.630;9.162;2022-07-12T08:25:36;6.23;;;2.93;;
495;SDS011;39559;48.630;9.162;2022-07-12T08:28:02;3.33;;;2.67;;
495;SDS011;39559;48.630;9.162;2022-07-12T08:30:28;3.47;;;2.47;;
495;SDS011;39559;48.630;9.162;2022-07-12T08:32:53;3.03;;;2.60;;
495;SDS011;39559;48.630;9.162;2022-07-12T08:35:20;2.70;;;2.30;;
495;SDS011;39559;48.630;9.162;2022-07-12T08:37:46;3.00;;;2.50;;
495;SDS011;39559;48.630;9.162;2022-07-12T08:40:11;3.83;;;2.37;;
495;SDS011;39559;48.630;9.162;2022-07-12T08:42:40;3.20;;;2.80;;
495;SDS011;39559;48.630;9.162;2022-07-12T08:45:07;3.80;;;2.70;;
495;SDS011;39559;48.630;9.162;2022-07-12T08:49:34;3.20;;;2.60;;
495;SDS011;39559;48.630;9.162;2022-07-12T08:52:06;3.30;;;2.53;;
495;SDS011;39559;48.630;9.162;2022-07-12T08:54:52;3.60;;;2.60;;
495;SDS011;39559;48.630;9.162;2022-07-12T08:57:30;3.17;;;2.67;;
495;SDS011;39559;48.630;9.162;2022-07-12T09:00:00;3.43;;;2.87;;
495;SDS011;39559;48.630;9.162;2022-07-12T09:02:26;3.00;;;2.70;;
495;SDS011;39559;48.630;9.162;2022-07-12T09:05:07;3.60;;;3.00;;
495;SDS011;39559;48.630;9.162;2022-07-12T09:07:34;4.30;;;2.80;;
495;SDS011;39559;48.630;9.162;2022-07-12T09:10:08;3.23;;;2.83;;
495;SDS011;39559;48.630;9.162;2022-07-12T09:13:50;3.43;;;2.93;;
495;SDS011;39559;48.630;9.162;2022-07-12T09:16:16;3.80;;;3.10;;
495;SDS011;39559;48.630;9.162;2022-07-12T09:18:44;3.60;;;2.90;;
495;SDS011;39559;48.630;9.162;2022-07-12T09:21:32;3.83;;;3.03;;
495;SDS011;39559;48.630;9.162;2022-07-12T09:23:57;4.03;;;3.10;;
495;SDS011;39559;48.630;9.162;2022-07-12T09:26:29;4.13;;;3.07;;
495;SDS011;39559;48.630;9.162;2022-07-12T09:29:04;4.87;;;3.50;;
495;SDS011;39559;48.630;9.162;2022-07-12T09:32:08;3.97;;;3.40;;
495;SDS011;39559;48.630;9.162;2022-07-12T09:37:28;4.73;;;3.50;;
495;SDS011;39559;48.630;9.162;2022-07-12T09:40:04;5.27;;;3.17;;
495;SDS011;39559;48.630;9.162;2022-07-12T09:42:31;3.70;;;3.10;;
495;SDS011;39559;48.630;9.162;2022-07-12T09:44:58;3.50;;;3.10;;
495;SDS011;39559;48.630;9.162;2022-07-12T09:47:25;3.10;;;2.80;;
495;SDS011;39559;48.630;9.162;2022-07-12T09:49:52;3.40;;;2.80;;
495;SDS011;39559;48.630;9.162;2022-07-12T09:52:22;3.30;;;2.90;;
495;SDS011;39559;48.630;9.162;2022-07-12T09:54:51;3.90;;;2.90;;
495;SDS011;39559;48.630;9.162;2022-07-12T09:57:21;3.30;;;3.00;;
495;SDS011;39559;48.630;9.162;2022-07-12T10:01:25;3.60;;;3.00;;
495;SDS011;39559;48.630;9.162;2022-07-12T10:03:51;3.70;;;2.80;;
495;SDS011;39559;48.630;9.162;2022-07-12T10:06:38;3.90;;;3.10;;
495;SDS011;39559;48.630;9.162;2022-07-12T10:09:04;3.93;;;3.23;;
495;SDS011;39559;48.630;9.162;2022-07-12T10:11:31;3.73;;;3.03;;
495;SDS011;39559;48.630;9.162;2022-07-12T10:13:57;3.83;;;2.70;;
495;SDS011;39559;48.630;9.162;2022-07-12T10:16:25;4.77;;;2.80;;
495;SDS011;39559;48.630;9.162;2022-07-12T10:21:55;3.47;;;3.00;;
495;SDS011;39559;48.630;9.162;2022-07-12T10:25:28;3.40;;;2.80;;
495;SDS011;39559;48.630;9.162;2022-07-12T10:27:55;4.60;;;3.03;;
495;SDS011;39559;48.630;9.162;2022-07-12T10:30:23;3.60;;;2.73;;
495;SDS011;39559;48.630;9.162;2022-07-12T10:32:50;4.40;;;2.90;;
495;SDS011;39559;48.630;9.162;2022-07-12T10:35:23;3.30;;;2.70;;
495;SDS011;39559;48.630;9.162;2022-07-12T10:40:46;4.13;;;2.63;;
495;SDS011;39559;48.630;9.162;2022-07-12T10:43:13;3.47;;;2.70;;
495;SDS011;39559;48.630;9.162;2022-07-12T10:45:42;3.37;;;2.73;;
495;SDS011;39559;48.630;9.162;2022-07-12T10:49:24;3.30;;;2.80;;
495;SDS011;39559;48.630;9.162;2022-07-12T10:54:36;3.60;;;2.80;;
495;SDS011;39559;48.630;9.162;2022-07-12T10:57:01;3.03;;;2.40;;
495;SDS011;39559;48.630;9.162;2022-07-12T10:59:27;2.90;;;2.50;;
495;SDS011;39559;48.630;9.162;2022-07-12T11:01:55;3.50;;;2.70;;
495;SDS011;39559;48.630;9.162;2022-07-12T11:04:21;4.50;;;2.50;;
495;SDS011;39559;48.630;9.162;2022-07-12T11:06:47;2.80;;;2.47;;
495;SDS011;39559;48.630;9.162;2022-07-12T11:09:16;2.90;;;2.50;;
495;SDS011;39559;48.630;9.162;2022-07-12T11:13:22;3.67;;;2.53;;
495;SDS011;39559;48.630;9.162;2022-07-12T11:15:56;4.00;;;2.63;;
495;SDS011;39559;48.630;9.162;2022-07-12T11:18:32;3.30;;;2.57;;
495;SDS011;39559;48.630;9.162;2022-07-12T11:21:00;4.00;;;2.70;;
495;SDS011;39559;48.630;9.162;2022-07-12T11:23:27;2.67;;;2.33;;
495;SDS011;39559;48.630;9.162;2022-07-12T11:25:54;3.60;;;2.50;;
495;SDS011;39559;48.630;9.162;2022-07-12T11:28:20;3.47;;;2.40;;
495;SDS011;39559;48.630;9.162;2022-07-12T11:30:52;2.87;;;2.43;;
495;SDS011;39559;48.630;9.162;2022-07-12T11:33:19;4.10;;;2.50;;
495;SDS011;39559;48.630;9.162;2022-07-12T11:37:09;2.90;;;2.20;;
495;SDS011;39559;48.630;9.162;2022-07-12T11:39:38;3.17;;;2.30;;
495;SDS011;39559;48.630;9.162;2022-07-12T11:42:06;2.90;;;2.40;;
495;SDS011;39559;48.630;9.162;2022-07-12T11:44:44;3.07;;;2.63;;
495;SDS011;39559;48.630;9.162;2022-07-12T11:47:15;3.27;;;2.10;;
495;SDS011;39559;48.630;9.162;2022-07-12T11:49:45;2.53;;;2.17;;
495;SDS011;39559;48.630;9.162;2022-07-12T11:52:16;2.70;;;2.10;;
495;SDS011;39559;48.630;9.162;2022-07-12T11:54:43;4.37;;;2.47;;
495;SDS011;39559;48.630;9.162;2022-07-12T11:57:12;6.27;;;2.40;;
495;SDS011;39559;48.630;9.162;2022-07-12T12:01:04;3.27;;;2.27;;
495;SDS011;39559;48.630;9.162;2022-07-12T12:03:41;3.10;;;2.30;;
495;SDS011;39559;48.630;9.162;2022-07-12T12:06:08;2.90;;;2.40;;
495;SDS011;39559;48.630;9.162;2022-07-12T12:08:33;3.70;;;2.27;;
495;SDS011;39559;48.630;9.162;2022-07-12T12:10:59;2.90;;;2.23;;
495;SDS011;39559;48.630;9.162;2022-07-12T12:13:26;3.90;;;2.43;;
495;SDS011;39559;48.630;9.162;2022-07-12T12:15:53;2.80;;;2.20;;
495;SDS011;39559;48.630;9.162;2022-07-12T12:18:28;3.10;;;2.23;;
495;SDS011;39559;48.630;9.162;2022-07-12T12:21:02;3.10;;;2.20;;
495;SDS011;39559;48.630;9.162;2022-07-12T12:24:59;3.00;;;2.30;;
495;SDS011;39559;48.630;9.162;2022-07-12T12:27:26;3.53;;;2.30;;
495;SDS011;39559;48.630;9.162;2022-07-12T12:29:52;4.97;;;2.30;;
495;SDS011;39559;48.630;9.162;2022-07-12T12:32:17;2.57;;;1.93;;
495;SDS011;39559;48.630;9.162;2022-07-12T12:35:04;3.00;;;2.40;;
495;SDS011;39559;48.630;9.162;2022-07-12T12:37:35;2.97;;;2.20;;
495;SDS011;39559;48.630;9.162;2022-07-12T12:40:01;2.80;;;2.23;;
495;SDS011;39559;48.630;9.162;2022-07-12T12:42:27;2.80;;;2.20;;
495;SDS011;39559;48.630;9.162;2022-07-12T12:44:53;3.73;;;2.10;;
495;SDS011;39559;48.630;9.162;2022-07-12T12:48:53;3.30;;;2.40;;
495;SDS011;39559;48.630;9.162;2022-07-12T12:51:18;2.90;;;2.20;;
495;SDS011;39559;48.630;9.162;2022-07-12T12:53:44;3.33;;;2.30;;
495;SDS011;39559;48.630;9.162;2022-07-12T12:56:21;3.00;;;2.20;;
495;SDS011;39559;48.630;9.162;2022-07-12T12:58:46;2.73;;;2.27;;
495;SDS011;39559;48.630;9.162;2022-07-12T13:01:14;3.13;;;2.10;;
495;SDS011;39559;48.630;9.162;2022-07-12T13:03:39;3.20;;;2.03;;
495;SDS011;39559;48.630;9.162;2022-07-12T13:06:05;2.93;;;2.40;;
495;SDS011;39559;48.630;9.162;2022-07-12T13:08:30;2.77;;;2.17;;
495;SDS011;39559;48.630;9.162;2022-07-12T13:12:47;2.63;;;2.00;;
495;SDS011;39559;48.630;9.162;2022-07-12T13:15:13;2.90;;;2.10;;
495;SDS011;39559;48.630;9.162;2022-07-12T13:17:39;3.77;;;2.10;;
495;SDS011;39559;48.630;9.162;2022-07-12T13:20:04;2.67;;;2.30;;
495;SDS011;39559;48.630;9.162;2022-07-12T13:22:32;3.77;;;2.10;;
495;SDS011;39559;48.630;9.162;2022-07-12T13:24:58;2.87;;;2.17;;
495;SDS011;39559;48.630;9.162;2022-07-12T13:27:24;2.60;;;2.10;;
495;SDS011;39559;48.630;9.162;2022-07-12T13:29:52;2.73;;;2.00;;
495;SDS011;39559;48.630;9.162;2022-07-12T13:32:17;3.20;;;2.03;;
495;SDS011;39559;48.630;9.162;2022-07-12T13:36:43;2.60;;;2.10;;
495;SDS011;39559;48.630;9.162;2022-07-12T13:39:08;4.93;;;2.23;;
495;SDS011;39559;48.630;9.162;2022-07-12T13:41:52;3.40;;;2.10;;
495;SDS011;39559;48.630;9.162;2022-07-12T13:44:19;2.60;;;2.03;;
495;SDS011;39559;48.630;9.162;2022-07-12T13:46:44;2.70;;;2.17;;
495;SDS011;39559;48.630;9.162;2022-07-12T13:49:10;2.60;;;2.17;;
495;SDS011;39559;48.630;9.162;2022-07-12T13:51:35;2.90;;;2.00;;
495;SDS011;39559;48.630;9.162;2022-07-12T13:54:01;2.60;;;1.90;;
495;SDS011;39559;48.630;9.162;2022-07-12T13:56:26;3.00;;;2.40;;
495;SDS011;39559;48.630;9.162;2022-07-12T14:00:35;3.10;;;2.40;;
495;SDS011;39559;48.630;9.162;2022-07-12T14:03:01;2.70;;;2.00;;
495;SDS011;39559;48.630;9.162;2022-07-12T14:05:27;2.80;;;2.20;;
495;SDS011;39559;48.630;9.162;2022-07-12T14:07:52;3.13;;;2.40;;
495;SDS011;39559;48.630;9.162;2022-07-12T14:10:18;6.87;;;2.37;;
495;SDS011;39559;48.630;9.162;2022-07-12T14:12:44;3.00;;;2.20;;
495;SDS011;39559;48.630;9.162;2022-07-12T14:15:10;3.20;;;2.33;;
495;SDS011;39559;48.630;9.162;2022-07-12T14:20:05;2.80;;;2.10;;
495;SDS011;39559;48.630;9.162;2022-07-12T14:24:28;2.53;;;2.07;;
495;SDS011;39559;48.630;9.162;2022-07-12T14:26:54;2.80;;;2.20;;
495;SDS011;39559;48.630;9.162;2022-07-12T14:29:19;2.60;;;2.00;;
495;SDS011;39559;48.630;9.162;2022-07-12T14:31:45;2.60;;;2.00;;
495;SDS011;39559;48.630;9.162;2022-07-12T14:34:11;2.60;;;2.10;;
495;SDS011;39559;48.630;9.162;2022-07-12T14:36:37;2.80;;;2.20;;
495;SDS011;39559;48.630;9.162;2022-07-12T14:39:03;2.70;;;2.17;;
495;SDS011;39559;48.630;9.162;2022-07-12T14:41:29;6.83;;;2.40;;
495;SDS011;39559;48.630;9.162;2022-07-12T14:43:55;2.47;;;1.90;;
495;SDS011;39559;48.630;9.162;2022-07-12T14:48:21;2.50;;;1.87;;
495;SDS011;39559;48.630;9.162;2022-07-12T14:50:47;2.90;;;2.37;;
495;SDS011;39559;48.630;9.162;2022-07-12T14:53:12;2.80;;;2.10;;
495;SDS011;39559;48.630;9.162;2022-07-12T14:55:38;2.60;;;1.93;;
495;SDS011;39559;48.630;9.162;2022-07-12T14:58:05;2.50;;;1.90;;
495;SDS011;39559;48.630;9.162;2022-07-12T15:00:34;2.80;;;2.13;;
495;SDS011;39559;48.630;9.162;2022-07-12T15:03:00;3.03;;;1.97;;
495;SDS011;39559;48.630;9.162;2022-07-12T15:05:26;3.57;;;1.97;;
495;SDS011;39559;48.630;9.162;2022-07-12T15:07:52;2.40;;;1.90;;
495;SDS011;39559;48.630;9.162;2022-07-12T15:12:14;3.00;;;2.00;;
495;SDS011;39559;48.630;9.162;2022-07-12T15:14:40;4.30;;;2.00;;
495;SDS011;39559;48.630;9.162;2022-07-12T15:17:06;2.40;;;1.80;;
495;SDS011;39559;48.630;9.162;2022-07-12T15:19:32;2.90;;;2.00;;
495;SDS011;39559;48.630;9.162;2022-07-12T15:21:57;7.57;;;2.30;;
495;SDS011;39559;48.630;9.162;2022-07-12T15:24:23;3.47;;;2.30;;
495;SDS011;39559;48.630;9.162;2022-07-12T15:26:48;2.70;;;1.80;;
495;SDS011;39559;48.630;9.162;2022-07-12T15:29:14;3.27;;;2.00;;
495;SDS011;39559;48.630;9.162;2022-07-12T15:31:40;2.40;;;1.90;;
495;SDS011;39559;48.630;9.162;2022-07-12T15:36:06;2.37;;;1.73;;
495;SDS011;39559;48.630;9.162;2022-07-12T15:38:32;3.33;;;1.90;;
495;SDS011;39559;48.630;9.162;2022-07-12T15:40:58;2.50;;;2.00;;
495;SDS011;39559;48.630;9.162;2022-07-12T15:43:24;2.40;;;1.90;;
495;SDS011;39559;48.630;9.162;2022-07-12T15:45:49;2.40;;;1.80;;
495;SDS011;39559;48.630;9.162;2022-07-12T15:48:15;3.53;;;1.90;;
495;SDS011;39559;48.630;9.162;2022-07-12T15:50:40;3.30;;;2.20;;
495;SDS011;39559;48.630;9.162;2022-07-12T15:53:06;3.33;;;2.00;;
495;SDS011;39559;48.630;9.162;2022-07-12T15:55:50;2.33;;;1.73;;
495;SDS011;39559;48.630;9.162;2022-07-12T16:00:00;2.80;;;1.90;;
495;SDS011;39559;48.630;9.162;2022-07-12T16:02:25;2.40;;;1.90;;
495;SDS011;39559;48.630;9.162;2022-07-12T16:04:51;3.20;;;2.30;;
495;SDS011;39559;48.630;9.162;2022-07-12T16:07:16;5.00;;;2.13;;
495;SDS011;39559;48.630;9.162;2022-07-12T16:09:42;2.47;;;2.00;;
495;SDS011;39559;48.630;9.162;2022-07-12T16:12:08;2.60;;;2.10;;
495;SDS011;39559;48.630;9.162;2022-07-12T16:14:33;3.43;;;2.20;;
495;SDS011;39559;48.630;9.162;2022-07-12T16:16:59;2.60;;;2.20;;
495;SDS011;39559;48.630;9.162;2022-07-12T16:19:24;2.80;;;2.00;;
495;SDS011;39559;48.630;9.162;2022-07-12T16:23:52;3.47;;;2.17;;
495;SDS011;39559;48.630;9.162;2022-07-12T16:26:18;2.80;;;2.00;;
495;SDS011;39559;48.630;9.162;2022-07-12T16:28:43;3.83;;;2.73;;
495;SDS011;39559;48.630;9.162;2022-07-12T16:31:09;3.10;;;2.00;;
495;SDS011;39559;48.630;9.162;2022-07-12T16:33:34;3.53;;;2.10;;
495;SDS011;39559;48.630;9.162;2022-07-12T16:36:00;2.73;;;2.07;;
495;SDS011;39559;48.630;9.162;2022-07-12T16:38:26;3.50;;;2.13;;